Terminal Aerodrome Forecast
Issued by NWS

Home | Current Version | Previous Version | Text Only | Print | Product List | Glossary On
Versions: 1 2 3 4 5 6 7 8 9 10 11 12 13 14 15 16 17 18 19 20 21 22 23 24 25 26 27 28 29 30 31 32 33 34 35 36
350
FTUS43 KGRB 201518 AAA
TAFATW
TAF AMD
KATW 201518Z 2015/2112 14010G18KT P6SM VCSH SCT012 BKN070
      TEMPO 2015/2016 BKN012
     FM201600 16012G18KT P6SM SCT020 BKN100
     FM202100 18012G18KT 6SM -SHRA VCTS OVC040CB
     FM210300 19004KT P6SM VCTS BKN040CB
     FM210600 VRB03KT P6SM BKN030
     FM210800 34005KT 5SM BR SCT020
     FM211000 01006KT 3SM BR BKN012=

USA.gov is the U.S. government's official web portal to all federal, state and local government web resources and services.